logo
Search for airport 
image banner adimage banner adimage banner ad
image banner ad

WMKA - Alor Setar / Sultan Abdul Halim

Located in Alor Setar, Malaysia

ICAO - WMKA, IATA - AOR

Data provided by Airmate  

General information

Coordinates: N6°11'40" E100°24'3"
Elevation is 15 feet MSL.
 
View others Airports in Kedah

Operational data

Special qualification required
Current time UTC:
Current local time:
Weather
METAR: WMKA 141700Z VRB02KT 9999 FEW028 25/24 Q1008
TAF: TAF WMKA 141700Z 1418/1518 VRB03KT 9999 FEW030
View NOTAMs / SUP AIP / TFR affecting this airport [VIEW]
Communications frequencies: [VIEW]

Runways:

RWY identifierQFULength (ft)Width (ft)SurfaceLDA (ft)
0443°9006148ASP
22223°9006148ASP

Airport contact information

Address: Alor Setar Malaysia

Satellite view of WMKA